createdAt,value
2023-02-17T00:01:29.398Z,13.00
2023-02-17T00:03:59.584Z,12.60
2023-02-17T00:06:29.975Z,12.40
2023-02-17T00:08:59.591Z,12.70
2023-02-17T00:11:28.418Z,12.30
2023-02-17T00:13:57.035Z,12.10
2023-02-17T00:16:27.592Z,12.30
2023-02-17T00:18:59.718Z,12.50
2023-02-17T00:21:29.729Z,12.60
2023-02-17T00:23:58.607Z,12.70
2023-02-17T00:26:27.192Z,12.60
2023-02-17T00:28:56.219Z,12.70
2023-02-17T00:31:25.025Z,12.40
2023-02-17T00:33:56.572Z,12.50
2023-02-17T00:36:27.672Z,12.40
2023-02-17T00:38:57.561Z,12.40
2023-02-17T00:41:26.427Z,12.40
2023-02-17T00:43:55.024Z,12.60
2023-02-17T00:46:23.582Z,12.70
2023-02-17T00:48:52.943Z,12.50
2023-02-17T00:51:21.501Z,12.40
2023-02-17T00:53:51.260Z,12.60
2023-02-17T00:56:19.714Z,12.80
2023-02-17T00:58:48.393Z,13.00
2023-02-17T01:01:16.870Z,12.90
2023-02-17T01:03:45.341Z,13.20
2023-02-17T01:06:22.774Z,13.50
2023-02-17T01:08:52.541Z,13.20
2023-02-17T01:11:21.740Z,13.40
2023-02-17T01:13:50.225Z,13.50
2023-02-17T01:16:21.000Z,13.50
2023-02-17T01:18:49.972Z,13.10
2023-02-17T01:21:19.006Z,13.10
2023-02-17T01:23:47.692Z,12.90
2023-02-17T01:26:19.160Z,12.90
2023-02-17T01:28:47.998Z,12.80
2023-02-17T01:31:16.673Z,12.90
2023-02-17T01:33:45.352Z,12.60
2023-02-17T01:36:15.724Z,12.60
2023-02-17T01:38:48.034Z,13.10
2023-02-17T01:41:18.803Z,13.20
2023-02-17T01:44:10.314Z,13.40
2023-02-17T01:46:39.797Z,13.60
2023-02-17T01:49:25.288Z,13.80
2023-02-17T01:51:57.548Z,13.80
2023-02-17T01:54:31.480Z,13.80
2023-02-17T01:57:03.336Z,13.80
2023-02-17T01:59:32.173Z,14.10
2023-02-17T02:02:04.376Z,13.80
2023-02-17T02:04:36.125Z,14.40
2023-02-17T02:07:05.679Z,14.10
2023-02-17T02:09:38.460Z,13.40
2023-02-17T02:12:19.645Z,13.40
2023-02-17T02:14:49.404Z,13.40
2023-02-17T02:17:27.214Z,12.80
2023-02-17T02:20:27.250Z,13.20
2023-02-17T02:23:10.787Z,13.40
2023-02-17T02:26:05.364Z,13.30
2023-02-17T02:28:52.530Z,13.80
2023-02-17T02:31:30.726Z,13.90
2023-02-17T02:34:04.478Z,13.90
2023-02-17T02:36:38.459Z,13.70
2023-02-17T02:39:12.617Z,13.60
2023-02-17T02:41:45.116Z,13.20
2023-02-17T02:44:16.316Z,13.60
2023-02-17T02:46:44.814Z,13.70
2023-02-17T02:49:14.469Z,13.40
2023-02-17T02:51:50.820Z,13.40
2023-02-17T02:54:37.829Z,14.00
2023-02-17T02:57:21.349Z,13.70
2023-02-17T03:00:02.090Z,14.10
2023-02-17T03:02:35.386Z,14.30
2023-02-17T03:05:12.261Z,14.40
2023-02-17T03:07:46.096Z,14.20
2023-02-17T03:10:15.994Z,14.80
2023-02-17T03:12:44.474Z,14.50
2023-02-17T03:15:19.824Z,14.80
2023-02-17T03:17:48.059Z,14.70
2023-02-17T03:20:18.182Z,14.60
2023-02-17T03:22:48.444Z,14.80
2023-02-17T03:25:17.395Z,14.80
2023-02-17T03:27:45.643Z,14.60
2023-02-17T03:30:14.527Z,14.50
2023-02-17T03:32:42.919Z,14.10
2023-02-17T03:35:11.613Z,13.90
2023-02-17T03:37:41.372Z,14.70
2023-02-17T03:40:11.450Z,14.30
2023-02-17T03:42:39.888Z,14.30
2023-02-17T03:45:08.636Z,14.30
2023-02-17T03:47:37.095Z,14.50
2023-02-17T03:50:05.938Z,14.80
2023-02-17T03:52:34.212Z,14.40
2023-02-17T03:55:04.165Z,14.10
2023-02-17T03:57:34.774Z,13.90
2023-02-17T04:00:04.471Z,14.20
2023-02-17T04:02:32.786Z,13.80
2023-02-17T04:05:01.204Z,13.60
2023-02-17T04:07:29.563Z,13.90
2023-02-17T04:09:58.026Z,13.90
2023-02-17T04:12:27.826Z,13.80
2023-02-17T04:14:56.115Z,13.70
2023-02-17T04:17:24.470Z,13.40
2023-02-17T04:19:53.122Z,13.60
2023-02-17T04:22:21.465Z,13.70
2023-02-17T04:24:50.050Z,13.60
2023-02-17T04:27:18.251Z,13.70
2023-02-17T04:29:47.818Z,14.00
2023-02-17T04:32:16.195Z,14.00
2023-02-17T04:34:44.626Z,13.70
2023-02-17T04:37:13.039Z,13.90
2023-02-17T04:39:41.467Z,13.90
2023-02-17T04:42:09.750Z,13.80
2023-02-17T04:44:38.136Z,13.80
2023-02-17T04:47:07.624Z,13.70
2023-02-17T04:49:36.071Z,13.70
2023-02-17T04:52:04.513Z,14.00
2023-02-17T04:54:32.783Z,14.40
2023-02-17T04:57:01.236Z,14.30
2023-02-17T04:59:29.950Z,14.10
2023-02-17T05:01:58.337Z,14.00
2023-02-17T05:04:28.142Z,14.30
2023-02-17T05:06:56.496Z,14.20
2023-02-17T05:09:24.789Z,14.80
2023-02-17T05:11:53.099Z,14.40
2023-02-17T05:14:21.462Z,14.50
2023-02-17T05:16:49.930Z,14.80
2023-02-17T05:19:18.288Z,14.80
2023-02-17T05:21:47.989Z,14.50
2023-02-17T05:24:16.252Z,14.60
2023-02-17T05:26:44.832Z,14.80
2023-02-17T05:29:13.200Z,14.60
2023-02-17T05:31:41.666Z,14.90
2023-02-17T05:34:10.194Z,14.40
2023-02-17T05:36:38.587Z,14.40
2023-02-17T05:39:09.068Z,14.40
2023-02-17T05:41:37.468Z,14.40
2023-02-17T05:44:06.157Z,14.40
2023-02-17T05:46:34.439Z,14.20
2023-02-17T05:49:02.853Z,14.10
2023-02-17T05:51:31.496Z,14.40
2023-02-17T05:53:59.988Z,14.30
2023-02-17T05:56:29.594Z,14.20
2023-02-17T05:58:58.048Z,14.70
2023-02-17T06:01:26.427Z,14.60
2023-02-17T06:03:55.032Z,14.60
2023-02-17T06:06:23.395Z,14.40
2023-02-17T06:08:51.861Z,14.40
2023-02-17T06:11:20.130Z,14.10
2023-02-17T06:13:49.747Z,13.90
2023-02-17T06:16:18.106Z,14.00
2023-02-17T06:18:47.050Z,14.00
2023-02-17T06:21:15.442Z,13.70
2023-02-17T06:23:43.804Z,13.90
2023-02-17T06:26:12.245Z,13.80
2023-02-17T06:28:40.659Z,14.00
2023-02-17T06:31:10.523Z,13.90
2023-02-17T06:33:39.017Z,14.20
2023-02-17T06:36:08.374Z,13.80
2023-02-17T06:38:36.842Z,14.00
2023-02-17T06:41:05.294Z,14.20
2023-02-17T06:43:33.724Z,14.50
2023-02-17T06:46:02.417Z,14.40
2023-02-17T06:48:33.151Z,14.70
2023-02-17T06:51:02.060Z,14.70
2023-02-17T06:53:30.517Z,14.20
2023-02-17T06:55:58.798Z,14.40
2023-02-17T06:58:27.715Z,14.30
2023-02-17T07:00:56.168Z,14.50
2023-02-17T07:03:24.494Z,14.50
2023-02-17T07:05:58.386Z,15.00
2023-02-17T07:08:26.941Z,14.80
2023-02-17T07:10:55.324Z,14.60
2023-02-17T07:13:23.588Z,14.20
2023-02-17T07:15:51.851Z,14.00
2023-02-17T07:18:20.135Z,14.10
2023-02-17T07:20:48.859Z,14.30
2023-02-17T07:23:18.474Z,14.40
2023-02-17T07:25:46.900Z,14.40
2023-02-17T07:28:15.452Z,14.30
2023-02-17T07:30:44.725Z,14.10
2023-02-17T07:33:12.971Z,14.10
2023-02-17T07:35:43.983Z,14.30
2023-02-17T07:38:13.171Z,14.60
2023-02-17T07:40:42.765Z,14.60
2023-02-17T07:43:11.121Z,14.30
2023-02-17T07:45:39.618Z,14.20
2023-02-17T07:48:08.108Z,14.30
2023-02-17T07:50:36.361Z,13.80
2023-02-17T07:53:04.811Z,13.90
2023-02-17T07:55:33.530Z,13.50
2023-02-17T07:58:03.937Z,13.60
2023-02-17T08:00:32.356Z,13.60
2023-02-17T08:03:00.807Z,14.10
2023-02-17T08:05:29.226Z,14.00
2023-02-17T08:08:11.468Z,14.00
2023-02-17T08:10:57.062Z,14.00
2023-02-17T08:13:27.372Z,14.10
2023-02-17T08:15:55.767Z,13.80
2023-02-17T08:18:24.338Z,14.00
2023-02-17T08:20:53.164Z,13.50
2023-02-17T08:23:21.615Z,13.30
2023-02-17T08:25:49.984Z,12.90
2023-02-17T08:28:18.428Z,12.90
2023-02-17T08:30:48.229Z,13.10
2023-02-17T08:33:18.860Z,13.40
2023-02-17T08:35:47.339Z,13.40
2023-02-17T08:38:15.844Z,13.40
2023-02-17T08:40:44.525Z,13.20
2023-02-17T08:43:13.123Z,13.60
2023-02-17T08:45:41.406Z,13.80
2023-02-17T08:48:11.046Z,14.00
2023-02-17T08:50:39.625Z,13.80
2023-02-17T08:53:08.053Z,13.70
2023-02-17T08:55:48.595Z,14.00
2023-02-17T08:58:17.646Z,13.90
2023-02-17T09:00:46.168Z,13.90
2023-02-17T09:03:16.046Z,14.10
2023-02-17T09:05:44.508Z,14.20
2023-02-17T09:08:12.909Z,14.60
2023-02-17T09:10:41.265Z,14.40
2023-02-17T09:13:09.720Z,14.50
2023-02-17T09:15:38.109Z,14.40
2023-02-17T09:18:06.790Z,14.40
2023-02-17T09:20:36.943Z,14.40
2023-02-17T09:23:05.408Z,14.30
2023-02-17T09:25:34.587Z,14.20
2023-02-17T09:28:03.612Z,14.10
2023-02-17T09:30:32.247Z,14.30
2023-02-17T09:33:00.778Z,14.30
2023-02-17T09:35:29.321Z,14.10
2023-02-17T09:37:59.363Z,14.40
2023-02-17T09:40:39.508Z,14.40
2023-02-17T09:43:12.195Z,14.70
2023-02-17T09:45:40.968Z,14.60
2023-02-17T09:48:12.903Z,14.30
2023-02-17T09:50:45.881Z,14.40
2023-02-17T09:53:23.383Z,14.20
2023-02-17T09:55:55.103Z,13.90
2023-02-17T09:58:27.190Z,13.90
2023-02-17T10:00:59.193Z,13.80
2023-02-17T10:03:32.668Z,14.20
2023-02-17T10:06:12.939Z,14.00
2023-02-17T10:08:47.811Z,14.20
2023-02-17T10:11:23.246Z,14.10
2023-02-17T10:13:54.242Z,14.20
2023-02-17T10:16:26.405Z,14.10
2023-02-17T10:19:00.170Z,14.50
2023-02-17T10:21:32.335Z,14.40
2023-02-17T10:24:01.973Z,14.30
2023-02-17T10:26:47.385Z,14.20
2023-02-17T10:29:25.841Z,14.40
2023-02-17T10:32:06.887Z,14.10
2023-02-17T10:34:38.077Z,14.20
2023-02-17T10:37:12.813Z,14.20
2023-02-17T10:39:50.185Z,14.30
2023-02-17T10:42:23.203Z,14.20
2023-02-17T10:44:53.486Z,13.90
2023-02-17T10:47:23.349Z,14.10
2023-02-17T10:49:54.054Z,14.10
2023-02-17T10:52:24.416Z,14.00
2023-02-17T10:54:59.891Z,13.80
2023-02-17T10:57:33.872Z,13.70
2023-02-17T11:00:02.793Z,14.10
2023-02-17T11:02:38.141Z,14.00
2023-02-17T11:05:07.373Z,13.80
2023-02-17T11:07:38.444Z,14.10
2023-02-17T11:10:23.112Z,14.30
2023-02-17T11:12:52.300Z,13.90
2023-02-17T11:15:23.145Z,13.80
2023-02-17T11:17:52.314Z,14.30
2023-02-17T11:20:36.966Z,14.10
2023-02-17T11:23:23.268Z,14.00
2023-02-17T11:26:02.400Z,14.00
2023-02-17T11:28:30.910Z,13.80
2023-02-17T11:31:02.647Z,13.40
2023-02-17T11:33:34.608Z,13.90
2023-02-17T11:36:04.126Z,14.40
2023-02-17T11:38:44.911Z,13.70
2023-02-17T11:41:14.676Z,13.80
2023-02-17T11:43:53.773Z,14.10
2023-02-17T11:46:28.174Z,14.00
2023-02-17T11:49:26.786Z,14.00
2023-02-17T11:52:06.502Z,14.30
2023-02-17T11:54:44.486Z,14.20
2023-02-17T11:57:25.573Z,14.30
2023-02-17T12:00:05.789Z,14.00
2023-02-17T12:02:50.030Z,14.10
2023-02-17T12:05:26.529Z,14.50
2023-02-17T12:08:06.069Z,14.50
2023-02-17T12:10:48.746Z,14.80
2023-02-17T12:13:29.661Z,14.80
2023-02-17T12:16:13.165Z,14.50
2023-02-17T12:18:55.053Z,14.80
2023-02-17T12:21:37.313Z,14.50
2023-02-17T12:24:42.352Z,14.50
2023-02-17T12:27:23.875Z,14.20
2023-02-17T12:30:12.084Z,14.50
2023-02-17T12:32:55.918Z,14.70
2023-02-17T12:35:27.076Z,14.70
2023-02-17T12:37:59.445Z,14.50
2023-02-17T12:40:36.037Z,14.40
2023-02-17T12:43:10.103Z,14.80
2023-02-17T12:45:43.843Z,15.10
2023-02-17T12:48:17.469Z,15.20
2023-02-17T12:50:54.073Z,14.90
2023-02-17T12:53:35.059Z,15.00
2023-02-17T12:56:08.427Z,14.70
2023-02-17T12:58:37.483Z,14.60
2023-02-17T13:01:11.737Z,13.70
2023-02-17T13:03:40.749Z,14.40
2023-02-17T13:06:20.980Z,14.60
2023-02-17T13:08:55.756Z,14.90
2023-02-17T13:11:28.914Z,14.50
2023-02-17T13:13:58.436Z,14.70
2023-02-17T13:16:28.623Z,14.50
2023-02-17T13:19:07.835Z,14.20
2023-02-17T13:21:36.230Z,14.00
2023-02-17T13:24:07.401Z,14.20
2023-02-17T13:26:36.799Z,14.30
2023-02-17T13:29:34.437Z,14.40
2023-02-17T13:32:06.718Z,13.90
2023-02-17T13:34:37.635Z,14.10
2023-02-17T13:37:19.308Z,14.30
2023-02-17T13:39:48.211Z,14.10
2023-02-17T13:42:37.263Z,14.40
2023-02-17T13:45:17.542Z,13.90
2023-02-17T13:47:48.757Z,13.40
2023-02-17T13:50:32.463Z,13.50
2023-02-17T13:53:01.845Z,13.50
2023-02-17T13:55:30.619Z,14.10
2023-02-17T13:58:00.667Z,14.20
2023-02-17T14:00:31.684Z,14.10
2023-02-17T14:03:12.259Z,14.30
2023-02-17T14:05:44.549Z,14.20
2023-02-17T14:08:18.247Z,13.40
2023-02-17T14:10:47.244Z,13.00
2023-02-17T14:13:16.007Z,13.30
2023-02-17T14:15:58.619Z,13.40
2023-02-17T14:18:34.858Z,13.80
2023-02-17T14:21:24.172Z,13.60
2023-02-17T14:23:55.179Z,13.70
2023-02-17T14:26:32.180Z,13.70
2023-02-17T14:29:01.973Z,13.80
2023-02-17T14:31:30.681Z,14.00
2023-02-17T14:34:05.064Z,14.10
2023-02-17T14:36:35.825Z,13.60
2023-02-17T14:39:06.125Z,13.60
2023-02-17T14:41:35.227Z,13.90
2023-02-17T14:44:04.040Z,14.00
2023-02-17T14:46:32.606Z,13.80
2023-02-17T14:49:03.656Z,14.00
2023-02-17T14:51:35.394Z,13.50
2023-02-17T14:54:05.056Z,13.70
2023-02-17T14:56:37.501Z,13.90
2023-02-17T14:59:06.391Z,13.40
2023-02-17T15:01:34.814Z,13.70
2023-02-17T15:04:04.347Z,13.90
2023-02-17T15:06:39.293Z,13.70
2023-02-17T15:09:12.411Z,13.80
2023-02-17T15:11:42.517Z,14.20
2023-02-17T15:14:15.650Z,13.90
2023-02-17T15:16:44.047Z,14.20
2023-02-17T15:19:14.989Z,14.30
2023-02-17T15:21:46.869Z,14.20
2023-02-17T15:24:18.375Z,14.30
2023-02-17T15:26:48.159Z,14.10
2023-02-17T15:29:18.039Z,13.70
2023-02-17T15:31:47.195Z,13.70
2023-02-17T15:34:19.337Z,13.90
2023-02-17T15:36:48.098Z,14.00
2023-02-17T15:39:18.901Z,14.10
2023-02-17T15:41:48.441Z,14.20
2023-02-17T15:44:19.697Z,14.50
2023-02-17T15:46:50.985Z,14.50
2023-02-17T15:49:20.641Z,14.60
2023-02-17T15:51:48.986Z,14.20
2023-02-17T15:54:19.386Z,14.20
2023-02-17T15:56:50.017Z,14.20
2023-02-17T15:59:20.618Z,14.10
2023-02-17T16:01:49.126Z,14.20
2023-02-17T16:04:17.532Z,14.00
2023-02-17T16:06:47.275Z,14.00
2023-02-17T16:09:16.412Z,13.80
2023-02-17T16:11:49.401Z,13.90
2023-02-17T16:14:24.982Z,13.80
2023-02-17T16:16:53.547Z,13.70
2023-02-17T16:19:22.458Z,13.80
2023-02-17T16:21:51.981Z,13.70
2023-02-17T16:24:20.473Z,14.00
2023-02-17T16:26:49.061Z,14.10
2023-02-17T16:29:19.662Z,14.20
2023-02-17T16:31:48.737Z,14.00
2023-02-17T16:34:19.707Z,13.80
2023-02-17T16:36:49.602Z,13.70
2023-02-17T16:39:21.261Z,13.80
2023-02-17T16:41:50.695Z,13.80
2023-02-17T16:44:20.797Z,13.80
2023-02-17T16:46:50.708Z,13.90
2023-02-17T16:49:24.543Z,14.10
2023-02-17T16:51:53.120Z,13.80
2023-02-17T16:54:22.768Z,13.80
2023-02-17T16:56:52.685Z,13.80
2023-02-17T16:59:23.152Z,13.80
2023-02-17T17:01:53.181Z,13.70
2023-02-17T17:04:21.856Z,13.70
2023-02-17T17:06:51.583Z,13.80
2023-02-17T17:09:23.770Z,13.70
2023-02-17T17:11:52.480Z,13.80
2023-02-17T17:14:21.873Z,13.80
2023-02-17T17:16:53.821Z,13.70
2023-02-17T17:19:22.450Z,13.70
2023-02-17T17:21:51.278Z,13.60
2023-02-17T17:24:19.839Z,13.30
2023-02-17T17:26:51.654Z,13.30
2023-02-17T17:29:20.987Z,13.60
2023-02-17T17:31:49.624Z,13.80
2023-02-17T17:34:18.152Z,13.60
2023-02-17T17:36:48.170Z,13.40
2023-02-17T17:39:18.952Z,13.40
2023-02-17T17:41:48.958Z,13.40
2023-02-17T17:44:18.009Z,13.30
2023-02-17T17:46:46.620Z,13.10
2023-02-17T17:49:17.907Z,13.30
2023-02-17T17:51:46.600Z,13.40
2023-02-17T17:54:15.029Z,13.40
2023-02-17T17:56:44.780Z,13.50
2023-02-17T17:59:15.142Z,13.40
2023-02-17T18:01:45.702Z,13.30
2023-02-17T18:04:14.401Z,13.20
2023-02-17T18:06:45.296Z,13.40
2023-02-17T18:09:30.608Z,13.20
2023-02-17T18:12:02.543Z,13.40
2023-02-17T18:14:33.197Z,13.00
2023-02-17T18:17:01.831Z,13.10
2023-02-17T18:19:31.543Z,13.30
2023-02-17T18:21:59.922Z,13.20
2023-02-17T18:24:28.736Z,13.20
2023-02-17T18:26:57.208Z,13.20
2023-02-17T18:29:25.587Z,13.10
2023-02-17T18:31:55.336Z,13.20
2023-02-17T18:34:23.937Z,13.30
2023-02-17T18:36:52.397Z,12.90
2023-02-17T18:39:20.813Z,12.80
2023-02-17T18:41:49.208Z,13.00
2023-02-17T18:44:17.638Z,13.20
2023-02-17T18:46:46.033Z,13.20
2023-02-17T18:49:15.796Z,13.00
2023-02-17T18:51:44.191Z,12.70
2023-02-17T18:54:12.917Z,12.80
2023-02-17T18:56:41.398Z,12.80
2023-02-17T18:59:10.140Z,12.90
2023-02-17T19:01:40.931Z,12.90
2023-02-17T19:04:11.876Z,12.60
2023-02-17T19:06:41.925Z,12.80
2023-02-17T19:09:10.425Z,12.90
2023-02-17T19:11:39.265Z,12.80
2023-02-17T19:14:07.769Z,13.10
2023-02-17T19:16:36.127Z,12.90
2023-02-17T19:19:04.906Z,12.80
2023-02-17T19:21:36.261Z,12.80
2023-02-17T19:24:06.339Z,12.80
2023-02-17T19:26:34.709Z,12.90
2023-02-17T19:29:03.117Z,12.90
2023-02-17T19:31:32.381Z,12.60
2023-02-17T19:34:00.878Z,12.60
2023-02-17T19:36:29.315Z,12.60
2023-02-17T19:38:59.017Z,12.50
2023-02-17T19:41:28.748Z,12.40
2023-02-17T19:43:58.972Z,12.90
2023-02-17T19:46:28.259Z,12.80
2023-02-17T19:48:56.585Z,12.50
2023-02-17T19:51:25.003Z,12.70
2023-02-17T19:53:53.463Z,12.60
2023-02-17T19:56:23.897Z,12.60
2023-02-17T19:58:54.211Z,12.30
2023-02-17T20:01:24.590Z,12.20
2023-02-17T20:03:55.142Z,12.40
2023-02-17T20:06:26.630Z,12.50
2023-02-17T20:08:56.936Z,12.70
2023-02-17T20:11:25.981Z,12.80
2023-02-17T20:13:55.942Z,12.60
2023-02-17T20:16:24.324Z,12.40
2023-02-17T20:18:55.224Z,12.50
2023-02-17T20:21:28.125Z,12.70
2023-02-17T20:23:57.334Z,12.70
2023-02-17T20:26:27.520Z,12.80
2023-02-17T20:28:57.739Z,12.80
2023-02-17T20:31:26.820Z,12.90
2023-02-17T20:33:55.579Z,12.80
2023-02-17T20:36:25.048Z,12.70
2023-02-17T20:38:53.723Z,12.70
2023-02-17T20:41:23.917Z,12.60
2023-02-17T20:43:52.686Z,12.80
2023-02-17T20:46:26.002Z,12.70
2023-02-17T20:48:54.808Z,12.70
2023-02-17T20:51:23.243Z,12.80
2023-02-17T20:53:52.217Z,12.70
2023-02-17T20:56:23.252Z,12.60
2023-02-17T20:58:53.329Z,12.60
2023-02-17T21:01:22.943Z,12.80
2023-02-17T21:03:51.430Z,12.30
2023-02-17T21:06:23.206Z,12.50
2023-02-17T21:08:52.689Z,12.30
2023-02-17T21:11:21.313Z,12.50
2023-02-17T21:13:50.238Z,12.50
2023-02-17T21:16:23.784Z,12.60
2023-02-17T21:18:52.697Z,12.40
2023-02-17T21:21:20.983Z,12.40
2023-02-17T21:23:49.354Z,12.80
2023-02-17T21:26:18.264Z,13.00
2023-02-17T21:28:47.387Z,12.70
2023-02-17T21:31:16.910Z,12.50
2023-02-17T21:33:46.575Z,12.40
2023-02-17T21:36:16.577Z,12.50
2023-02-17T21:38:45.760Z,12.50
2023-02-17T21:41:16.869Z,12.50
2023-02-17T21:44:02.976Z,12.50
2023-02-17T21:46:31.534Z,12.50
2023-02-17T21:49:02.289Z,12.40
2023-02-17T21:51:31.133Z,12.60
2023-02-17T21:54:00.254Z,12.60
2023-02-17T21:56:28.489Z,12.70
2023-02-17T21:58:57.464Z,12.40
2023-02-17T22:01:27.322Z,12.40
2023-02-17T22:03:56.162Z,12.40
2023-02-17T22:06:27.671Z,12.70
2023-02-17T22:08:56.602Z,12.90
2023-02-17T22:11:26.406Z,12.90
2023-02-17T22:13:56.327Z,12.80
2023-02-17T22:16:25.323Z,12.70
2023-02-17T22:18:54.254Z,12.60
2023-02-17T22:21:22.720Z,12.60
2023-02-17T22:23:52.307Z,12.70
2023-02-17T22:26:23.311Z,12.70
2023-02-17T22:28:52.361Z,12.60
2023-02-17T22:31:22.668Z,13.00
2023-02-17T22:33:51.492Z,12.90
2023-02-17T22:36:22.176Z,12.80
2023-02-17T22:38:52.598Z,13.00
2023-02-17T22:41:22.188Z,13.20
2023-02-17T22:43:51.593Z,13.30
2023-02-17T22:46:21.784Z,13.20
2023-02-17T22:48:51.840Z,13.00
2023-02-17T22:51:21.935Z,12.90
2023-02-17T22:53:51.769Z,12.90
2023-02-17T22:56:20.510Z,12.80
2023-02-17T22:58:53.795Z,12.90
2023-02-17T23:01:22.584Z,13.10
2023-02-17T23:03:53.927Z,12.90
2023-02-17T23:06:25.541Z,13.00
2023-02-17T23:08:56.040Z,12.80
2023-02-17T23:11:40.924Z,12.80
2023-02-17T23:14:09.309Z,12.80
2023-02-17T23:16:37.921Z,13.00
2023-02-17T23:19:10.031Z,13.10
2023-02-17T23:21:38.930Z,13.20
2023-02-17T23:24:09.184Z,13.10
2023-02-17T23:26:37.619Z,13.30
2023-02-17T23:29:06.238Z,13.60
2023-02-17T23:31:34.739Z,13.50
2023-02-17T23:34:03.204Z,13.20
2023-02-17T23:36:32.190Z,13.30
2023-02-17T23:39:02.192Z,13.70
2023-02-17T23:41:31.734Z,13.40
2023-02-17T23:44:00.594Z,13.70
2023-02-17T23:46:30.240Z,13.70
2023-02-17T23:48:58.663Z,13.70
2023-02-17T23:51:27.031Z,13.70
2023-02-17T23:53:55.536Z,13.90
2023-02-17T23:56:26.823Z,13.90
2023-02-17T23:58:56.725Z,13.80
